Time;durP1;ratioP1;P1;durP2;ratioP2;P2;SDS_P1;SDS_P2;PMS_P1;PMS_P2;Temp;Humidity;BMP_temperature;BMP_pressure;BME280_temperature;BME280_humidity;BME280_pressure;Samples;Min_cycle;Max_cycle;Signal;HPM_P1;HPM_P2
2023/10/06 00:00:47;;;;;;;13.90;9.20;;;;;;;17.49;83.57;102118.75;5049177;27;99533;-75
2023/10/06 00:03:14;;;;;;;12.20;9.93;;;;;;;17.44;83.80;102119.91;5052086;27;96937;-76
2023/10/06 00:05:43;;;;;;;14.45;8.85;;;;;;;17.60;83.04;102120.97;5047805;27;97697;-75
2023/10/06 00:08:16;;;;;;;15.40;10.15;;;;;;;17.90;81.34;102119.69;5048216;27;99002;-74
2023/10/06 00:10:46;;;;;;;16.25;9.60;;;;;;;17.90;81.26;102106.31;5048025;27;98874;-74
2023/10/06 00:13:18;;;;;;;15.55;9.68;;;;;;;17.68;82.23;102116.19;5049787;27;96961;-74
2023/10/06 00:15:49;;;;;;;12.90;9.45;;;;;;;17.86;81.54;102110.03;5046173;27;97022;-74
2023/10/06 00:18:19;;;;;;;16.05;9.48;;;;;;;17.80;81.62;102121.00;5048331;27;100911;-73
2023/10/06 00:20:48;;;;;;;15.45;9.40;;;;;;;17.80;81.86;102115.66;5045072;27;97918;-73
2023/10/06 00:23:20;;;;;;;14.63;8.57;;;;;;;17.75;82.02;102114.13;5047729;27;96937;-74
2023/10/06 00:25:47;;;;;;;13.50;8.90;;;;;;;17.79;82.05;102121.06;5052206;27;96828;-74
2023/10/06 00:28:19;;;;;;;17.88;9.75;;;;;;;17.78;82.03;102104.19;5047434;27;99022;-72
2023/10/06 00:30:55;;;;;;;12.85;9.23;;;;;;;17.81;81.89;102105.84;5048408;27;99268;-73
2023/10/06 00:33:22;;;;;;;14.65;9.50;;;;;;;17.89;81.27;102107.25;5049343;27;97016;-75
2023/10/06 00:35:50;;;;;;;13.23;8.73;;;;;;;17.90;81.40;102106.31;5051699;27;96890;-74
2023/10/06 00:38:17;;;;;;;13.10;9.27;;;;;;;18.04;81.03;102110.16;5050390;27;99181;-75
2023/10/06 00:40:51;;;;;;;16.02;8.82;;;;;;;18.02;81.28;102112.03;5049226;27;99296;-74
2023/10/06 00:43:30;;;;;;;13.55;8.45;;;;;;;18.09;80.86;102113.50;5048697;27;97905;-75
2023/10/06 00:46:00;;;;;;;12.05;8.43;;;;;;;18.09;80.97;102105.47;5048373;27;96932;-74
2023/10/06 00:48:29;;;;;;;13.23;8.50;;;;;;;18.21;80.30;102110.25;5042939;27;99352;-75
2023/10/06 00:50:58;;;;;;;11.02;8.70;;;;;;;18.20;80.51;102109.41;5050101;27;101375;-75
2023/10/06 00:53:31;;;;;;;12.32;8.75;;;;;;;18.28;80.21;102101.03;5050873;27;96789;-74
2023/10/06 00:55:59;;;;;;;12.18;8.07;;;;;;;18.25;80.49;102110.03;5049329;27;97214;-75
2023/10/06 00:58:28;;;;;;;11.98;7.90;;;;;;;18.26;80.32;102095.72;5050074;27;101796;-75
2023/10/06 01:00:56;;;;;;;12.45;8.30;;;;;;;18.15;81.13;102092.69;5049088;27;99203;-77
2023/10/06 01:03:25;;;;;;;12.88;8.20;;;;;;;18.28;80.21;102084.97;5045559;27;101707;-77
2023/10/06 01:05:58;;;;;;;12.98;7.93;;;;;;;18.31;80.57;102098.22;5045975;27;96781;-76
2023/10/06 01:08:28;;;;;;;11.95;8.52;;;;;;;18.16;81.00;102089.09;5049656;27;101665;-78
2023/10/06 01:11:06;;;;;;;15.40;9.07;;;;;;;18.22;81.66;102082.56;5046769;27;101359;-76
2023/10/06 01:13:34;;;;;;;12.30;8.88;;;;;;;18.10;82.01;102089.38;5050571;27;96807;-76
2023/10/06 01:16:01;;;;;;;16.13;8.90;;;;;;;18.12;82.02;102076.78;5049172;27;96914;-77
2023/10/06 01:18:35;;;;;;;13.38;9.55;;;;;;;18.22;81.00;102085.25;5048039;27;99724;-77
2023/10/06 01:21:13;;;;;;;16.42;9.30;;;;;;;18.18;81.63;102089.03;5047538;27;101788;-75
2023/10/06 01:23:41;;;;;;;15.13;9.30;;;;;;;18.16;81.95;102088.22;5044542;27;96976;-75
2023/10/06 01:26:08;;;;;;;13.68;9.38;;;;;;;18.11;81.96;102096.47;5044663;27;97457;-75
2023/10/06 01:28:35;;;;;;;14.02;10.23;;;;;;;18.08;82.49;102093.91;5048705;27;102076;-75
2023/10/06 01:31:02;;;;;;;16.05;9.55;;;;;;;18.10;82.88;102093.84;5036582;27;99961;-75
2023/10/06 01:33:30;;;;;;;14.00;10.95;;;;;;;17.99;83.09;102091.63;5047867;27;96790;-75
2023/10/06 01:35:59;;;;;;;17.33;10.98;;;;;;;18.02;83.23;102086.16;5049357;27;96994;-76
2023/10/06 01:38:26;;;;;;;21.73;12.43;;;;;;;17.95;83.87;102092.72;5049064;27;99007;-75
2023/10/06 01:40:54;;;;;;;20.88;12.85;;;;;;;17.95;84.03;102094.53;5049399;27;101785;-75
2023/10/06 01:43:23;;;;;;;20.73;12.95;;;;;;;17.85;85.09;102089.59;5044948;27;97473;-78
2023/10/06 01:45:50;;;;;;;19.80;13.15;;;;;;;17.86;85.48;102096.66;5045326;27;97096;-78
2023/10/06 01:48:29;;;;;;;21.48;13.20;;;;;;;17.82;85.30;102100.44;5046724;27;98932;-78
2023/10/06 01:50:56;;;;;;;18.33;12.82;;;;;;;17.95;84.64;102102.56;5045026;27;98763;-79
2023/10/06 01:53:23;;;;;;;17.25;13.73;;;;;;;18.00;84.90;102101.41;5046921;27;96814;-78
2023/10/06 01:55:51;;;;;;;22.08;13.25;;;;;;;18.02;84.39;102096.88;5046488;27;97255;-78
2023/10/06 01:58:19;;;;;;;19.63;13.13;;;;;;;18.37;82.99;102108.63;5049622;27;99012;-78
2023/10/06 02:00:48;;;;;;;18.95;13.48;;;;;;;18.23;82.96;102108.41;5044603;27;98379;-77
2023/10/06 02:03:17;;;;;;;19.98;12.68;;;;;;;17.91;84.73;102105.38;5050045;27;96873;-77
2023/10/06 02:05:43;;;;;;;20.73;13.15;;;;;;;18.05;83.71;102107.41;5040884;27;96898;-77
2023/10/06 02:08:14;;;;;;;17.13;12.00;;;;;;;18.14;83.81;102103.47;5046427;27;98264;-77
2023/10/06 02:10:42;;;;;;;22.50;12.90;;;;;;;18.27;82.93;102101.97;5046347;27;102105;-76
2023/10/06 02:13:09;;;;;;;14.82;11.43;;;;;;;18.38;82.35;102098.81;5050924;27;96800;-77
2023/10/06 02:15:36;;;;;;;17.15;11.50;;;;;;;18.28;83.03;102096.53;5047388;27;96862;-76
2023/10/06 02:18:04;;;;;;;19.33;11.13;;;;;;;18.26;82.53;102094.88;5042387;27;97938;-77
2023/10/06 02:20:34;;;;;;;26.15;12.10;;;;;;;18.45;81.77;102095.75;5044739;27;102248;-76
2023/10/06 02:23:03;;;;;;;19.27;11.80;;;;;;;18.42;81.82;102095.03;5039623;27;96934;-76
2023/10/06 02:25:29;;;;;;;16.95;11.25;;;;;;;18.47;81.56;102098.34;5047244;27;96786;-78
2023/10/06 02:27:59;;;;;;;21.13;11.02;;;;;;;18.35;82.02;102097.13;5045126;27;100770;-78
2023/10/06 02:30:33;;;;;;;14.95;10.38;;;;;;;18.33;82.12;102091.84;5037067;27;97942;-77
2023/10/06 02:33:01;;;;;;;19.45;11.05;;;;;;;18.46;81.94;102093.94;5046244;27;96882;-78
2023/10/06 02:35:27;;;;;;;20.38;11.38;;;;;;;18.40;82.02;102094.22;5048563;27;97076;-78
2023/10/06 02:37:57;;;;;;;16.40;11.07;;;;;;;18.33;82.11;102107.03;5044910;27;99412;-78
2023/10/06 02:40:31;;;;;;;18.13;11.10;;;;;;;18.31;82.35;102104.41;5049203;27;99082;-77
2023/10/06 02:43:00;;;;;;;16.42;11.15;;;;;;;18.35;82.10;102102.47;5044923;27;97040;-78
2023/10/06 02:45:37;;;;;;;16.63;10.98;;;;;;;18.37;82.22;102114.00;5046872;27;98918;-78
2023/10/06 02:48:15;;;;;;;19.20;11.88;;;;;;;18.21;83.09;102107.59;5047026;27;99016;-77
2023/10/06 02:50:44;;;;;;;17.85;12.10;;;;;;;18.09;83.52;102111.69;5042409;27;99331;-78
2023/10/06 02:53:14;;;;;;;18.85;12.15;;;;;;;18.10;83.66;102101.88;5038926;27;96867;-78
2023/10/06 02:55:43;;;;;;;16.98;11.63;;;;;;;18.06;84.08;102113.63;5046473;27;96946;-79
2023/10/06 02:58:10;;;;;;;18.13;12.15;;;;;;;18.20;83.59;102106.72;5049114;27;98921;-78
2023/10/06 03:00:37;;;;;;;21.40;12.85;;;;;;;18.31;82.40;102098.22;5046263;27;100085;-77
2023/10/06 03:03:12;;;;;;;18.88;12.80;;;;;;;18.37;82.63;102097.94;5045462;27;97180;-79
2023/10/06 03:05:39;;;;;;;18.65;12.40;;;;;;;18.39;82.20;102090.69;5048135;27;96898;-79
2023/10/06 03:08:08;;;;;;;19.90;13.07;;;;;;;18.53;81.84;102080.19;5049898;27;99276;-80
2023/10/06 03:10:42;;;;;;;21.90;13.10;;;;;;;18.49;81.86;102085.78;5038074;27;98954;-80
2023/10/06 03:13:09;;;;;;;22.00;13.60;;;;;;;18.19;82.90;102082.69;5044318;27;96898;-79
2023/10/06 03:15:36;;;;;;;19.23;13.52;;;;;;;18.44;82.67;102088.69;5048717;27;98617;-80
2023/10/06 03:18:05;;;;;;;24.20;15.55;;;;;;;18.57;81.69;102083.66;5045277;27;99702;-79
2023/10/06 03:20:40;;;;;;;19.30;14.68;;;;;;;18.52;81.91;102089.16;5048908;27;98842;-77
2023/10/06 03:23:23;;;;;;;18.10;13.67;;;;;;;18.39;83.05;102082.66;5044175;27;96731;-78
2023/10/06 03:25:53;;;;;;;25.63;14.95;;;;;;;18.35;82.42;102077.53;5047689;27;96825;-77
2023/10/06 03:28:20;;;;;;;20.92;14.77;;;;;;;18.37;82.43;102071.16;5043895;27;100548;-78
2023/10/06 03:30:49;;;;;;;21.65;15.20;;;;;;;18.57;81.66;102072.94;5044968;27;99186;-77
2023/10/06 03:33:18;;;;;;;19.98;14.48;;;;;;;18.46;82.41;102070.72;5041395;27;96800;-78
2023/10/06 03:35:48;;;;;;;25.85;16.30;;;;;;;18.21;83.60;102064.78;5050131;27;96791;-77
2023/10/06 03:38:35;;;;;;;21.38;15.85;;;;;;;18.55;82.41;102070.31;5049681;27;101881;-80
2023/10/06 03:41:18;;;;;;;24.23;14.63;;;;;;;18.51;82.29;102074.03;5049310;27;99583;-79
2023/10/06 03:43:49;;;;;;;18.95;14.18;;;;;;;18.49;82.15;102073.25;5049022;27;97282;-78
2023/10/06 03:46:18;;;;;;;22.38;15.55;;;;;;;18.54;82.66;102073.03;5046156;27;96855;-78
2023/10/06 03:48:48;;;;;;;18.75;14.90;;;;;;;18.28;83.35;102075.13;5044299;27;101718;-78
2023/10/06 03:51:16;;;;;;;29.42;14.98;;;;;;;18.16;84.42;102080.19;5046895;27;98759;-77
2023/10/06 03:53:44;;;;;;;25.38;16.38;;;;;;;18.25;84.34;102069.03;5048613;27;96882;-77
2023/10/06 03:56:12;;;;;;;22.80;15.57;;;;;;;18.20;84.18;102063.03;5048616;27;96785;-77
2023/10/06 03:58:39;;;;;;;27.73;14.95;;;;;;;18.43;83.26;102070.00;5049725;27;99051;-78
2023/10/06 04:01:09;;;;;;;23.65;15.15;;;;;;;18.57;82.99;102072.94;5046891;27;99116;-78
2023/10/06 04:03:36;;;;;;;23.83;15.95;;;;;;;18.70;81.75;102063.38;5049577;27;97369;-77
2023/10/06 04:06:04;;;;;;;25.80;15.55;;;;;;;18.58;82.20;102080.88;5050767;27;96781;-79
2023/10/06 04:08:30;;;;;;;21.02;15.05;;;;;;;18.74;81.79;102072.09;5048420;27;99237;-78
2023/10/06 04:10:58;;;;;;;24.52;16.27;;;;;;;18.65;81.63;102071.59;5049824;27;98815;-76
2023/10/06 04:13:25;;;;;;;23.27;15.80;;;;;;;18.66;81.75;102070.66;5051670;27;96871;-76
2023/10/06 04:15:53;;;;;;;24.60;15.77;;;;;;;18.49;82.45;102064.38;5051113;27;96855;-77
2023/10/06 04:18:22;;;;;;;25.60;16.65;;;;;;;18.50;81.98;102066.09;5047753;27;99804;-81
2023/10/06 04:20:49;;;;;;;25.95;15.82;;;;;;;18.60;81.76;102062.94;5049360;27;98930;-77
2023/10/06 04:23:22;;;;;;;23.77;15.88;;;;;;;18.55;81.79;102064.06;5048024;27;96978;-77
2023/10/06 04:25:54;;;;;;;22.42;16.52;;;;;;;18.51;81.65;102076.72;5046646;27;97770;-78
2023/10/06 04:28:22;;;;;;;24.33;16.77;;;;;;;18.48;82.27;102068.84;5040268;27;99282;-76
2023/10/06 04:30:50;;;;;;;28.13;17.17;;;;;;;18.12;83.85;102062.53;5043346;27;98760;-77
2023/10/06 04:33:18;;;;;;;25.30;16.88;;;;;;;18.37;83.31;102071.16;5045880;27;97017;-77
2023/10/06 04:35:52;;;;;;;23.88;17.00;;;;;;;18.38;82.60;102064.84;5049575;27;97160;-77
2023/10/06 04:38:20;;;;;;;25.42;16.20;;;;;;;18.41;82.47;102067.41;5045444;27;100169;-78
2023/10/06 04:40:47;;;;;;;26.60;17.23;;;;;;;18.47;82.28;102064.44;5047366;27;98959;-77
2023/10/06 04:43:14;;;;;;;29.52;17.48;;;;;;;18.57;81.96;102068.44;5044201;27;96796;-78
2023/10/06 04:45:40;;;;;;;26.15;17.20;;;;;;;18.41;82.56;102072.75;5047944;27;96970;-78
2023/10/06 04:48:07;;;;;;;26.88;16.65;;;;;;;18.43;82.63;102067.34;5050338;27;99315;-77
2023/10/06 04:50:34;;;;;;;23.73;16.05;;;;;;;18.32;82.62;102074.03;5050022;27;98201;-77
2023/10/06 04:53:01;;;;;;;28.40;18.10;;;;;;;18.20;83.29;102069.25;5046258;27;97738;-78
2023/10/06 04:55:31;;;;;;;29.63;18.17;;;;;;;18.30;83.08;102067.91;5046162;27;97574;-78
2023/10/06 04:57:57;;;;;;;27.98;18.75;;;;;;;18.18;83.49;102067.63;5048228;27;99250;-78
2023/10/06 05:00:27;;;;;;;30.15;18.20;;;;;;;18.36;82.59;102076.59;5048748;27;101036;-77
2023/10/06 05:02:54;;;;;;;28.15;18.17;;;;;;;18.35;82.62;102070.38;5049931;27;97386;-77
2023/10/06 05:05:20;;;;;;;32.70;18.70;;;;;;;18.22;82.87;102058.50;5046393;27;97645;-77
2023/10/06 05:07:48;;;;;;;26.02;18.85;;;;;;;18.16;82.84;102056.97;5049683;27;98958;-78
2023/10/06 05:10:16;;;;;;;31.65;18.77;;;;;;;18.31;82.43;102047.38;5044339;27;101057;-79
2023/10/06 05:12:44;;;;;;;27.35;19.38;;;;;;;18.15;82.66;102049.03;5049538;27;96889;-77
2023/10/06 05:15:17;;;;;;;27.15;19.08;;;;;;;18.11;83.53;102056.34;5041646;27;99425;-78
2023/10/06 05:17:44;;;;;;;28.90;19.20;;;;;;;17.80;84.60;102064.84;5047990;27;99403;-78
2023/10/06 05:20:19;;;;;;;31.00;20.42;;;;;;;17.68;85.79;102070.75;5045987;27;99034;-78
2023/10/06 05:22:48;;;;;;;27.23;20.50;;;;;;;17.70;85.74;102068.03;5042642;27;97663;-77
2023/10/06 05:25:15;;;;;;;32.13;20.67;;;;;;;17.69;85.33;102055.59;5051643;27;97526;-78
2023/10/06 05:27:42;;;;;;;30.73;20.63;;;;;;;17.77;85.05;102066.81;5046327;27;100451;-78
2023/10/06 05:30:13;;;;;;;31.77;20.55;;;;;;;17.79;85.13;102070.28;5045008;27;99010;-79
2023/10/06 05:32:42;;;;;;;31.40;20.73;;;;;;;17.79;84.67;102056.91;5046622;27;96787;-79
2023/10/06 05:35:10;;;;;;;32.17;20.55;;;;;;;17.82;84.30;102059.44;5049714;27;96821;-78
2023/10/06 05:37:36;;;;;;;27.88;20.08;;;;;;;17.77;84.11;102051.66;5044541;27;99148;-78
2023/10/06 05:40:04;;;;;;;32.58;19.67;;;;;;;17.82;84.15;102060.31;5044229;27;96878;-79
2023/10/06 05:42:33;;;;;;;31.95;20.73;;;;;;;17.79;84.51;102054.22;5046645;27;97752;-78
2023/10/06 05:45:01;;;;;;;28.17;19.90;;;;;;;17.78;84.31;102061.41;5048482;27;97133;-78
2023/10/06 05:47:31;;;;;;;37.78;20.45;;;;;;;17.78;83.89;102058.72;5046343;27;100154;-79
2023/10/06 05:49:59;;;;;;;27.48;19.88;;;;;;;18.02;82.68;102063.91;5039671;27;98937;-79
2023/10/06 05:52:26;;;;;;;27.70;19.25;;;;;;;17.86;82.79;102055.69;5047640;27;96860;-79
2023/10/06 05:54:57;;;;;;;31.48;20.00;;;;;;;18.13;81.86;102059.78;5046216;27;96895;-79
2023/10/06 05:57:23;;;;;;;32.20;19.33;;;;;;;18.01;81.98;102060.34;5043548;27;99721;-78
2023/10/06 05:59:51;;;;;;;33.10;19.63;;;;;;;18.21;81.45;102072.81;5045453;27;99257;-78
2023/10/06 06:02:18;;;;;;;28.42;18.13;;;;;;;18.09;81.75;102068.03;5046683;27;97295;-77
2023/10/06 06:04:46;;;;;;;29.17;18.38;;;;;;;18.18;81.30;102071.13;5038154;27;100281;-77
2023/10/06 06:07:14;;;;;;;27.65;18.58;;;;;;;17.88;81.73;102073.41;5047194;27;99047;-77
2023/10/06 06:09:43;;;;;;;24.45;17.48;;;;;;;18.04;82.21;102076.28;5045306;27;99831;-77
2023/10/06 06:12:10;;;;;;;28.50;17.63;;;;;;;17.92;81.36;102066.09;5045827;27;97365;-78
2023/10/06 06:14:37;;;;;;;28.23;17.70;;;;;;;18.07;81.32;102069.91;5049847;27;96843;-78
2023/10/06 06:17:05;;;;;;;26.38;17.63;;;;;;;18.40;80.50;102062.09;5047097;27;98855;-80
2023/10/06 06:19:32;;;;;;;30.35;17.42;;;;;;;18.41;80.02;102064.72;5046469;27;98835;-79
2023/10/06 06:22:02;;;;;;;26.92;16.10;;;;;;;18.48;79.08;102070.66;5042277;27;96918;-79
2023/10/06 06:24:29;;;;;;;22.20;16.92;;;;;;;18.53;78.40;102068.63;5048013;27;97006;-79
2023/10/06 06:26:55;;;;;;;26.98;16.15;;;;;;;18.57;78.91;102062.22;5043021;27;99356;-77
2023/10/06 06:29:22;;;;;;;24.92;15.30;;;;;;;18.81;77.64;102047.63;5046562;27;98895;-77
2023/10/06 06:31:52;;;;;;;21.38;14.85;;;;;;;18.80;77.58;102045.91;5045662;27;96731;-78
2023/10/06 06:34:19;;;;;;;24.17;15.13;;;;;;;18.93;76.61;102049.72;5045555;27;97294;-79
2023/10/06 06:36:47;;;;;;;23.58;15.68;;;;;;;18.85;76.81;102045.66;5048635;27;98242;-79
2023/10/06 06:39:16;;;;;;;25.90;15.35;;;;;;;19.03;75.46;102063.53;5042489;27;98950;-78
2023/10/06 06:41:43;;;;;;;19.55;14.20;;;;;;;18.93;76.02;102059.56;5042993;27;97152;-78
2023/10/06 06:44:10;;;;;;;26.75;14.30;;;;;;;18.88;76.07;102072.31;5044535;27;97715;-77
2023/10/06 06:46:38;;;;;;;20.90;14.07;;;;;;;19.04;75.53;102071.47;5045940;27;99072;-78
2023/10/06 06:49:04;;;;;;;26.45;14.07;;;;;;;18.84;76.33;102071.56;5046758;27;98748;-77
2023/10/06 06:51:33;;;;;;;22.30;14.43;;;;;;;18.98;76.18;102055.69;5045796;27;97256;-77
2023/10/06 06:53:59;;;;;;;23.75;14.80;;;;;;;19.23;74.38;102049.97;5041695;27;97673;-78
2023/10/06 06:56:28;;;;;;;29.40;14.73;;;;;;;19.06;75.09;102041.91;5045173;27;97704;-78
2023/10/06 06:58:55;;;;;;;21.65;14.25;;;;;;;19.01;75.03;102043.97;5043494;27;99246;-77
2023/10/06 07:01:23;;;;;;;29.85;14.88;;;;;;;19.15;74.60;102060.22;5042923;27;97068;-77
2023/10/06 07:03:49;;;;;;;23.55;14.18;;;;;;;19.35;74.23;102061.88;5038774;27;97611;-78
2023/10/06 07:06:16;;;;;;;22.02;14.20;;;;;;;19.19;74.10;102058.25;5041153;27;99690;-77
2023/10/06 07:08:43;;;;;;;24.98;13.57;;;;;;;19.16;74.21;102067.31;5038539;27;98869;-78
2023/10/06 07:11:10;;;;;;;22.50;13.38;;;;;;;19.20;73.83;102063.53;5047671;27;97211;-76
2023/10/06 07:13:38;;;;;;;27.45;13.15;;;;;;;19.28;73.92;102055.97;5048545;27;97768;-77
2023/10/06 07:16:05;;;;;;;20.65;12.88;;;;;;;19.31;73.52;102050.44;5051285;27;98087;-77
2023/10/06 07:18:31;;;;;;;24.45;11.93;;;;;;;19.20;73.87;102050.13;5050157;27;101430;-77
2023/10/06 07:20:59;;;;;;;24.60;12.98;;;;;;;19.25;73.60;102060.59;5050496;27;96689;-78
2023/10/06 07:23:25;;;;;;;20.88;13.25;;;;;;;19.30;73.23;102056.75;5050788;27;96968;-78
2023/10/06 07:25:52;;;;;;;22.08;13.85;;;;;;;19.38;73.37;102051.88;5048025;27;101476;-77
2023/10/06 07:28:19;;;;;;;25.17;12.32;;;;;;;19.46;72.02;102049.69;5046857;27;99202;-78
2023/10/06 07:30:46;;;;;;;19.98;12.38;;;;;;;19.57;71.94;102041.06;5041128;27;97043;-77
2023/10/06 07:33:13;;;;;;;29.67;13.48;;;;;;;19.74;70.89;102037.53;5042696;27;99670;-77
2023/10/06 07:35:43;;;;;;;21.80;11.75;;;;;;;19.56;70.97;102039.34;5041497;27;97791;-77
2023/10/06 07:38:10;;;;;;;24.27;12.00;;;;;;;19.40;72.07;102036.56;5041578;27;98865;-75
2023/10/06 07:40:38;;;;;;;17.77;10.55;;;;;;;19.53;70.96;102035.97;5037956;27;98722;-76
2023/10/06 07:43:07;;;;;;;25.17;11.63;;;;;;;19.37;71.60;102042.09;5040075;27;97060;-77
2023/10/06 07:45:35;;;;;;;19.15;11.32;;;;;;;19.48;70.51;102038.91;5038994;27;99574;-78
2023/10/06 07:48:05;;;;;;;21.67;10.93;;;;;;;19.62;70.39;102035.50;5035799;27;99180;-78
2023/10/06 07:50:33;;;;;;;20.13;11.40;;;;;;;19.55;70.67;102036.75;5039710;27;99124;-78
2023/10/06 07:53:00;;;;;;;21.00;10.65;;;;;;;19.84;69.87;102039.63;5038614;27;98748;-77
2023/10/06 07:55:27;;;;;;;17.00;9.98;;;;;;;19.85;68.58;102046.72;5040827;27;99665;-78
2023/10/06 07:57:53;;;;;;;16.98;10.10;;;;;;;19.78;69.13;102045.31;5041523;27;99386;-78
2023/10/06 08:00:27;;;;;;;17.10;9.82;;;;;;;19.78;69.00;102039.94;5038635;27;97160;-79
2023/10/06 08:02:54;;;;;;;12.68;8.52;;;;;;;19.88;68.74;102037.66;5035764;27;101004;-77
2023/10/06 08:05:22;;;;;;;15.15;9.38;;;;;;;19.99;68.71;102039.75;5039924;27;99263;-77
2023/10/06 08:07:48;;;;;;;19.23;9.18;;;;;;;20.22;67.85;102032.16;5041165;27;99543;-76
2023/10/06 08:10:18;;;;;;;17.13;8.38;;;;;;;20.16;67.49;102032.50;5041932;27;98037;-78
2023/10/06 08:12:46;;;;;;;16.42;8.38;;;;;;;20.12;66.62;102020.22;5048416;27;96862;-78
2023/10/06 08:15:17;;;;;;;17.92;7.70;;;;;;;20.29;66.37;102030.84;5044334;27;98862;-77
2023/10/06 08:17:45;;;;;;;22.73;8.18;;;;;;;20.09;66.25;102036.47;5048400;27;101698;-77
2023/10/06 08:20:15;;;;;;;16.13;7.82;;;;;;;20.06;66.94;102023.22;5046305;27;97533;-78
2023/10/06 08:22:46;;;;;;;15.60;7.85;;;;;;;20.04;66.74;102029.63;5041287;27;97640;-76
2023/10/06 08:25:13;;;;;;;17.42;8.10;;;;;;;20.01;66.94;102021.75;5045080;27;99497;-76
2023/10/06 08:27:41;;;;;;;15.90;7.97;;;;;;;19.94;67.25;102013.19;5047700;27;99469;-77
2023/10/06 08:30:09;;;;;;;15.70;7.53;;;;;;;20.47;65.91;102003.97;5041294;27;98849;-75
2023/10/06 08:32:36;;;;;;;22.20;8.18;;;;;;;20.90;64.24;101995.16;5042617;27;97658;-75
2023/10/06 08:35:12;;;;;;;13.43;6.53;;;;;;;20.99;63.33;101988.38;5040809;27;99581;-76
2023/10/06 08:37:39;;;;;;;16.92;7.47;;;;;;;20.78;63.55;101982.44;5044117;27;98796;-75
2023/10/06 08:40:16;;;;;;;17.02;6.80;;;;;;;20.90;63.40;101980.84;5046941;27;97516;-76
2023/10/06 08:42:43;;;;;;;;;;;;;;;20.81;63.01;101976.88;5044072;27;97985;-76
2023/10/06 08:45:11;;;;;;;13.52;6.72;;;;;;;20.74;63.66;101971.97;5047616;27;98946;-76
2023/10/06 08:47:39;;;;;;;13.48;7.20;;;;;;;20.72;63.92;101964.00;5044166;27;97500;-77
2023/10/06 08:50:06;;;;;;;12.82;6.85;;;;;;;20.94;63.69;101969.81;5040828;27;97642;-76
2023/10/06 08:52:33;;;;;;;19.65;7.30;;;;;;;20.89;63.17;101966.56;5039701;27;97142;-76
2023/10/06 08:55:00;;;;;;;10.02;5.80;;;;;;;20.87;63.43;101964.94;5049287;27;99489;-77
2023/10/06 08:57:30;;;;;;;16.27;6.40;;;;;;;20.90;62.10;101973.66;5045897;27;98110;-76
2023/10/06 08:59:57;;;;;;;14.88;6.00;;;;;;;21.08;62.40;101967.19;5046156;27;98921;-77
2023/10/06 09:02:25;;;;;;;14.18;6.00;;;;;;;20.98;62.80;101981.28;5043930;27;97241;-76
2023/10/06 09:04:54;;;;;;;14.73;6.13;;;;;;;20.74;63.51;101970.16;5044187;27;99886;-76
2023/10/06 09:07:21;;;;;;;12.57;6.05;;;;;;;20.77;63.37;101974.47;5043826;27;98807;-77
2023/10/06 09:09:47;;;;;;;17.67;5.82;;;;;;;21.06;62.71;101979.00;5043834;27;98710;-77
2023/10/06 09:12:24;;;;;;;8.40;5.18;;;;;;;21.08;62.32;101975.25;5033038;27;98940;-77
2023/10/06 09:14:54;;;;;;;12.25;6.10;;;;;;;21.04;61.63;101976.41;5028894;27;98825;-76
2023/10/06 09:17:31;;;;;;;12.85;5.68;;;;;;;20.74;62.68;101974.66;5031914;27;100660;-76
2023/10/06 09:19:58;;;;;;;9.35;5.38;;;;;;;20.80;61.70;101971.63;5030412;27;97150;-75
2023/10/06 09:22:28;;;;;;;15.27;5.72;;;;;;;20.74;62.34;101971.97;5030242;27;97703;-76
2023/10/06 09:25:04;;;;;;;13.25;5.10;;;;;;;20.64;62.82;101969.81;5027891;27;101304;-76
2023/10/06 09:27:31;;;;;;;15.73;4.63;;;;;;;20.75;62.44;101971.88;5032459;27;101395;-76
2023/10/06 09:30:07;;;;;;;12.95;4.88;;;;;;;20.93;61.68;101967.25;5043935;27;96851;-75
2023/10/06 09:32:35;;;;;;;10.27;4.72;;;;;;;21.40;60.89;101962.56;5045613;27;99141;-75
2023/10/06 09:35:18;;;;;;;9.77;4.38;;;;;;;21.72;59.48;101940.88;5040046;27;99066;-77
2023/10/06 09:37:45;;;;;;;10.07;4.10;;;;;;;21.72;58.71;101948.97;5046442;27;98015;-78
2023/10/06 09:40:20;;;;;;;12.23;4.03;;;;;;;21.75;58.90;101951.44;5048807;27;100556;-77
2023/10/06 09:42:48;;;;;;;14.48;4.68;;;;;;;21.93;57.19;101935.94;5045360;27;97144;-77
2023/10/06 09:45:21;;;;;;;11.38;4.10;;;;;;;21.70;57.51;101938.28;5045640;27;99427;-78
2023/10/06 09:47:50;;;;;;;11.32;3.58;;;;;;;21.58;57.80;101943.56;5047781;27;98807;-77
2023/10/06 09:50:19;;;;;;;10.60;4.18;;;;;;;21.31;58.91;101935.41;5047219;27;97612;-76
2023/10/06 09:52:47;;;;;;;11.57;3.78;;;;;;;21.39;58.37;101927.72;5049213;27;97261;-78
2023/10/06 09:55:17;;;;;;;10.30;3.75;;;;;;;21.91;57.27;101928.00;5048831;27;98921;-78
2023/10/06 09:57:47;;;;;;;6.72;3.33;;;;;;;22.27;55.57;101913.97;5045230;27;99186;-78
2023/10/06 10:00:17;;;;;;;9.82;3.58;;;;;;;22.10;55.30;101915.09;5042464;27;97675;-77
2023/10/06 10:02:45;;;;;;;8.27;3.28;;;;;;;21.06;57.79;101919.88;5047062;27;97670;-79
2023/10/06 10:05:13;;;;;;;9.80;3.10;;;;;;;21.20;58.13;101916.38;5039885;27;97656;-78
2023/10/06 10:07:40;;;;;;;7.90;2.60;;;;;;;21.44;56.27;101910.34;5048398;27;101844;-77
2023/10/06 10:10:10;;;;;;;9.93;2.88;;;;;;;21.94;55.69;101913.44;5046646;27;97087;-78
2023/10/06 10:12:50;;;;;;;7.32;2.97;;;;;;;22.12;54.24;101902.38;5047097;27;96795;-77
2023/10/06 10:15:32;;;;;;;9.82;3.05;;;;;;;22.08;54.28;101906.25;5045640;27;99243;-77
2023/10/06 10:18:05;;;;;;;10.20;3.25;;;;;;;22.08;54.06;101916.16;5038666;27;99241;-77
2023/10/06 10:20:32;;;;;;;9.48;2.50;;;;;;;21.74;54.12;101910.22;5042812;27;98441;-77
2023/10/06 10:23:01;;;;;;;10.95;2.88;;;;;;;22.01;53.43;101901.38;5035360;27;97253;-77
2023/10/06 10:25:30;;;;;;;8.90;2.20;;;;;;;21.95;53.40;101894.53;5040846;27;98882;-78
2023/10/06 10:28:17;;;;;;;10.88;2.67;;;;;;;22.13;52.83;101887.09;5043795;27;98724;-78
2023/10/06 10:30:56;;;;;;;;;;;;;;;22.19;52.59;101886.69;5042008;27;98239;-78
2023/10/06 10:33:23;;;;;;;12.10;2.67;;;;;;;22.22;52.29;101891.88;5046862;27;98348;-77
2023/10/06 10:36:21;;;;;;;8.02;2.78;;;;;;;22.00;52.99;101886.19;5042922;27;99459;-78
2023/10/06 10:39:00;;;;;;;6.97;2.53;;;;;;;21.80;53.61;101890.13;5041781;27;101599;-77
2023/10/06 10:41:30;;;;;;;8.32;3.20;;;;;;;21.73;54.25;101872.66;5043852;27;97223;-78
2023/10/06 10:44:01;;;;;;;8.95;2.47;;;;;;;21.95;53.24;101873.00;5043217;27;97508;-78
2023/10/06 10:46:33;;;;;;;7.55;2.40;;;;;;;22.14;52.65;101859.22;5047465;27;101638;-78
2023/10/06 10:49:01;;;;;;;8.02;2.25;;;;;;;22.18;52.44;101858.06;5048372;27;100401;-76
2023/10/06 10:51:33;;;;;;;7.55;2.10;;;;;;;22.32;52.25;101851.75;5050090;27;97088;-77
2023/10/06 10:54:00;;;;;;;6.32;2.28;;;;;;;22.09;51.71;101851.47;5050279;27;96956;-77
2023/10/06 10:56:36;;;;;;;9.55;2.55;;;;;;;22.17;52.01;101859.03;5045756;27;99217;-78
2023/10/06 10:59:03;;;;;;;7.85;2.42;;;;;;;22.24;50.80;101863.91;5051065;27;99135;-78
2023/10/06 11:01:32;;;;;;;7.57;2.08;;;;;;;22.32;50.54;101871.44;5049032;27;97141;-77
2023/10/06 11:04:18;;;;;;;6.22;2.03;;;;;;;22.53;50.37;101870.00;5047016;27;97137;-77
2023/10/06 11:06:45;;;;;;;8.40;2.33;;;;;;;22.66;49.60;101867.34;5050211;27;99409;-78
2023/10/06 11:09:25;;;;;;;7.47;2.38;;;;;;;22.65;49.94;101863.78;5046668;27;99746;-78
2023/10/06 11:11:52;;;;;;;6.70;2.35;;;;;;;22.66;49.40;101862.81;5041997;27;96895;-77
2023/10/06 11:14:18;;;;;;;4.03;2.10;;;;;;;22.75;49.37;101863.19;5051479;27;96905;-78
2023/10/06 11:16:46;;;;;;;7.60;2.20;;;;;;;23.03;48.55;101857.63;5046744;27;99249;-77
2023/10/06 11:19:15;;;;;;;7.57;1.95;;;;;;;22.94;48.91;101867.22;5047738;27;98079;-78
2023/10/06 11:21:44;;;;;;;7.95;2.50;;;;;;;23.22;48.31;101859.88;5045259;27;97927;-79
2023/10/06 11:24:10;;;;;;;8.18;2.55;;;;;;;23.20;47.81;101848.34;5047890;27;96850;-78